sensor_id;sensor_type;location;lat;lon;timestamp;temperature;humidity
75769;DHT22;64379;48.888;8.330;2022-12-16T00:00:37;-1.90;82.00
75769;DHT22;64379;48.888;8.330;2022-12-16T00:03:02;-2.00;82.40
75769;DHT22;64379;48.888;8.330;2022-12-16T00:05:28;-1.90;82.20
75769;DHT22;64379;48.888;8.330;2022-12-16T00:07:54;-1.90;82.20
75769;DHT22;64379;48.888;8.330;2022-12-16T00:10:20;-1.90;82.30
75769;DHT22;64379;48.888;8.330;2022-12-16T00:12:46;-2.10;82.30
75769;DHT22;64379;48.888;8.330;2022-12-16T00:15:12;-2.10;82.70
75769;DHT22;64379;48.888;8.330;2022-12-16T00:17:37;-2.00;82.80
75769;DHT22;64379;48.888;8.330;2022-12-16T00:20:05;-2.10;83.00
75769;DHT22;64379;48.888;8.330;2022-12-16T00:22:30;-2.10;83.10
75769;DHT22;64379;48.888;8.330;2022-12-16T00:24:56;-2.20;83.50
75769;DHT22;64379;48.888;8.330;2022-12-16T00:27:22;-2.10;83.60
75769;DHT22;64379;48.888;8.330;2022-12-16T00:29:47;-2.10;83.20
75769;DHT22;64379;48.888;8.330;2022-12-16T00:32:13;-2.10;83.10
75769;DHT22;64379;48.888;8.330;2022-12-16T00:34:39;-2.10;83.00
75769;DHT22;64379;48.888;8.330;2022-12-16T00:37:04;-2.20;83.30
75769;DHT22;64379;48.888;8.330;2022-12-16T00:39:30;-2.20;83.70
75769;DHT22;64379;48.888;8.330;2022-12-16T00:41:55;-2.10;83.00
75769;DHT22;64379;48.888;8.330;2022-12-16T00:44:21;-2.10;83.30
75769;DHT22;64379;48.888;8.330;2022-12-16T00:46:47;-2.10;83.00
75769;DHT22;64379;48.888;8.330;2022-12-16T00:49:12;-2.10;83.00
75769;DHT22;64379;48.888;8.330;2022-12-16T00:51:38;-2.10;82.50
75769;DHT22;64379;48.888;8.330;2022-12-16T00:54:03;-2.20;82.80
75769;DHT22;64379;48.888;8.330;2022-12-16T00:56:29;-2.10;83.00
75769;DHT22;64379;48.888;8.330;2022-12-16T00:58:55;-2.20;83.20
75769;DHT22;64379;48.888;8.330;2022-12-16T01:01:20;-2.20;83.50
75769;DHT22;64379;48.888;8.330;2022-12-16T01:03:46;-2.20;83.30
75769;DHT22;64379;48.888;8.330;2022-12-16T01:06:14;-2.10;83.20
75769;DHT22;64379;48.888;8.330;2022-12-16T01:08:40;-2.10;83.60
75769;DHT22;64379;48.888;8.330;2022-12-16T01:11:14;-2.10;83.50
75769;DHT22;64379;48.888;8.330;2022-12-16T01:13:40;-2.10;83.30
75769;DHT22;64379;48.888;8.330;2022-12-16T01:16:06;-2.10;83.40
75769;DHT22;64379;48.888;8.330;2022-12-16T01:18:31;-2.20;83.60
75769;DHT22;64379;48.888;8.330;2022-12-16T01:21:05;-2.30;83.70
75769;DHT22;64379;48.888;8.330;2022-12-16T01:23:31;-2.30;83.90
75769;DHT22;64379;48.888;8.330;2022-12-16T01:25:58;-2.30;83.90
75769;DHT22;64379;48.888;8.330;2022-12-16T01:28:25;-2.30;84.40
75769;DHT22;64379;48.888;8.330;2022-12-16T01:30:59;-2.30;84.20
75769;DHT22;64379;48.888;8.330;2022-12-16T01:33:30;-2.30;84.40
75769;DHT22;64379;48.888;8.330;2022-12-16T01:36:05;-2.40;84.40
75769;DHT22;64379;48.888;8.330;2022-12-16T01:38:31;-2.40;84.60
75769;DHT22;64379;48.888;8.330;2022-12-16T01:40:57;-2.40;85.10
75769;DHT22;64379;48.888;8.330;2022-12-16T01:43:26;-2.50;85.00
75769;DHT22;64379;48.888;8.330;2022-12-16T01:45:53;-2.40;85.00
75769;DHT22;64379;48.888;8.330;2022-12-16T01:51:00;-2.20;84.90
75769;DHT22;64379;48.888;8.330;2022-12-16T01:53:27;-2.40;84.60
75769;DHT22;64379;48.888;8.330;2022-12-16T01:55:54;-2.30;84.80
75769;DHT22;64379;48.888;8.330;2022-12-16T01:58:29;-2.40;84.60
75769;DHT22;64379;48.888;8.330;2022-12-16T02:00:56;-2.40;85.00
75769;DHT22;64379;48.888;8.330;2022-12-16T02:03:22;-2.30;84.50
75769;DHT22;64379;48.888;8.330;2022-12-16T02:05:48;-2.30;84.60
75769;DHT22;64379;48.888;8.330;2022-12-16T02:08:16;-2.30;84.90
75769;DHT22;64379;48.888;8.330;2022-12-16T02:13:32;-2.20;84.20
75769;DHT22;64379;48.888;8.330;2022-12-16T02:16:16;-2.30;83.90
75769;DHT22;64379;48.888;8.330;2022-12-16T02:27:56;-2.30;84.40
75769;DHT22;64379;48.888;8.330;2022-12-16T02:33:16;-2.10;83.90
75769;DHT22;64379;48.888;8.330;2022-12-16T02:41:42;-2.30;84.40
75769;DHT22;64379;48.888;8.330;2022-12-16T02:44:13;-2.40;84.80
75769;DHT22;64379;48.888;8.330;2022-12-16T02:46:53;-2.30;84.40
75769;DHT22;64379;48.888;8.330;2022-12-16T02:51:45;-2.30;84.60
75769;DHT22;64379;48.888;8.330;2022-12-16T02:54:12;-2.30;84.80
75769;DHT22;64379;48.888;8.330;2022-12-16T03:04:35;-2.10;83.90
75769;DHT22;64379;48.888;8.330;2022-12-16T03:07:03;-2.20;83.90
75769;DHT22;64379;48.888;8.330;2022-12-16T03:09:33;-2.20;83.70
75769;DHT22;64379;48.888;8.330;2022-12-16T03:12:04;-2.10;83.40
75769;DHT22;64379;48.888;8.330;2022-12-16T03:14:33;-2.20;83.40
75769;DHT22;64379;48.888;8.330;2022-12-16T03:17:00;-2.30;83.30
75769;DHT22;64379;48.888;8.330;2022-12-16T03:19:30;-2.40;83.40
75769;DHT22;64379;48.888;8.330;2022-12-16T03:22:03;-2.30;83.30
75769;DHT22;64379;48.888;8.330;2022-12-16T03:24:30;-2.20;82.50
75769;DHT22;64379;48.888;8.330;2022-12-16T03:27:12;-2.30;82.50
75769;DHT22;64379;48.888;8.330;2022-12-16T03:32:23;-2.40;82.50
75769;DHT22;64379;48.888;8.330;2022-12-16T03:34:54;-2.30;82.10
75769;DHT22;64379;48.888;8.330;2022-12-16T03:37:24;-2.20;81.50
75769;DHT22;64379;48.888;8.330;2022-12-16T03:39:54;-2.20;81.30
75769;DHT22;64379;48.888;8.330;2022-12-16T03:42:21;-2.30;80.90
75769;DHT22;64379;48.888;8.330;2022-12-16T03:44:47;-2.40;81.60
75769;DHT22;64379;48.888;8.330;2022-12-16T03:47:14;-2.50;81.20
75769;DHT22;64379;48.888;8.330;2022-12-16T03:49:39;-2.40;81.20
75769;DHT22;64379;48.888;8.330;2022-12-16T03:52:06;-2.50;81.70
75769;DHT22;64379;48.888;8.330;2022-12-16T03:54:32;-2.30;81.40
75769;DHT22;64379;48.888;8.330;2022-12-16T03:56:57;-2.30;81.40
75769;DHT22;64379;48.888;8.330;2022-12-16T03:59:23;-2.30;81.30
75769;DHT22;64379;48.888;8.330;2022-12-16T04:01:49;-2.40;81.10
75769;DHT22;64379;48.888;8.330;2022-12-16T04:04:15;-2.50;81.40
75769;DHT22;64379;48.888;8.330;2022-12-16T04:06:41;-2.50;81.50
75769;DHT22;64379;48.888;8.330;2022-12-16T04:09:07;-2.40;81.00
75769;DHT22;64379;48.888;8.330;2022-12-16T04:11:32;-2.30;80.30
75769;DHT22;64379;48.888;8.330;2022-12-16T04:14:17;-2.30;80.00
75769;DHT22;64379;48.888;8.330;2022-12-16T04:17:02;-2.30;79.90
75769;DHT22;64379;48.888;8.330;2022-12-16T04:19:46;-2.40;80.10
75769;DHT22;64379;48.888;8.330;2022-12-16T04:22:37;-2.30;79.50
75769;DHT22;64379;48.888;8.330;2022-12-16T04:25:26;-2.30;79.80
75769;DHT22;64379;48.888;8.330;2022-12-16T04:27:53;-2.40;80.00
75769;DHT22;64379;48.888;8.330;2022-12-16T04:30:19;-2.40;79.50
75769;DHT22;64379;48.888;8.330;2022-12-16T04:32:52;-2.30;79.70
75769;DHT22;64379;48.888;8.330;2022-12-16T04:35:37;-2.30;78.80
75769;DHT22;64379;48.888;8.330;2022-12-16T04:38:21;-2.50;79.40
75769;DHT22;64379;48.888;8.330;2022-12-16T04:41:06;-2.60;80.20
75769;DHT22;64379;48.888;8.330;2022-12-16T04:43:50;-2.70;80.20
75769;DHT22;64379;48.888;8.330;2022-12-16T04:46:34;-2.70;80.30
75769;DHT22;64379;48.888;8.330;2022-12-16T04:49:18;-2.60;79.90
75769;DHT22;64379;48.888;8.330;2022-12-16T04:52:03;-2.60;79.50
75769;DHT22;64379;48.888;8.330;2022-12-16T04:54:48;-2.60;79.30
75769;DHT22;64379;48.888;8.330;2022-12-16T04:57:32;-2.60;78.70
75769;DHT22;64379;48.888;8.330;2022-12-16T05:00:16;-2.60;78.30
75769;DHT22;64379;48.888;8.330;2022-12-16T05:03:00;-2.80;79.40
75769;DHT22;64379;48.888;8.330;2022-12-16T05:05:44;-2.80;79.00
75769;DHT22;64379;48.888;8.330;2022-12-16T05:08:28;-2.60;79.10
75769;DHT22;64379;48.888;8.330;2022-12-16T05:11:13;-2.60;79.10
75769;DHT22;64379;48.888;8.330;2022-12-16T05:13:57;-2.60;78.40
75769;DHT22;64379;48.888;8.330;2022-12-16T05:16:41;-2.80;78.00
75769;DHT22;64379;48.888;8.330;2022-12-16T05:19:25;-2.80;78.50
75769;DHT22;64379;48.888;8.330;2022-12-16T05:22:09;-2.90;79.00
75769;DHT22;64379;48.888;8.330;2022-12-16T05:24:53;-2.90;79.20
75769;DHT22;64379;48.888;8.330;2022-12-16T05:27:38;-2.80;79.00
75769;DHT22;64379;48.888;8.330;2022-12-16T05:30:22;-2.80;78.60
75769;DHT22;64379;48.888;8.330;2022-12-16T05:33:07;-2.70;78.00
75769;DHT22;64379;48.888;8.330;2022-12-16T05:35:51;-2.80;77.90
75769;DHT22;64379;48.888;8.330;2022-12-16T05:38:35;-2.90;78.70
75769;DHT22;64379;48.888;8.330;2022-12-16T05:41:19;-2.90;79.20
75769;DHT22;64379;48.888;8.330;2022-12-16T05:44:04;-2.90;78.30
75769;DHT22;64379;48.888;8.330;2022-12-16T05:46:48;-2.90;78.00
75769;DHT22;64379;48.888;8.330;2022-12-16T05:49:32;-3.10;79.10
75769;DHT22;64379;48.888;8.330;2022-12-16T05:52:16;-3.20;78.90
75769;DHT22;64379;48.888;8.330;2022-12-16T05:55:00;-3.20;79.90
75769;DHT22;64379;48.888;8.330;2022-12-16T05:57:50;-3.20;79.80
75769;DHT22;64379;48.888;8.330;2022-12-16T06:00:35;-3.10;79.40
75769;DHT22;64379;48.888;8.330;2022-12-16T06:03:19;-3.10;78.40
75769;DHT22;64379;48.888;8.330;2022-12-16T06:06:04;-3.10;77.60
75769;DHT22;64379;48.888;8.330;2022-12-16T06:08:48;-3.20;77.80
75769;DHT22;64379;48.888;8.330;2022-12-16T06:11:32;-3.20;77.50
75769;DHT22;64379;48.888;8.330;2022-12-16T06:14:16;-3.20;78.00
75769;DHT22;64379;48.888;8.330;2022-12-16T06:17:01;-3.50;78.40
75769;DHT22;64379;48.888;8.330;2022-12-16T06:19:45;-3.60;79.10
75769;DHT22;64379;48.888;8.330;2022-12-16T06:22:29;-3.60;79.50
75769;DHT22;64379;48.888;8.330;2022-12-16T06:25:13;-3.80;79.60
75769;DHT22;64379;48.888;8.330;2022-12-16T06:27:57;-3.80;79.40
75769;DHT22;64379;48.888;8.330;2022-12-16T06:30:41;-3.90;79.90
75769;DHT22;64379;48.888;8.330;2022-12-16T06:33:25;-4.00;80.00
75769;DHT22;64379;48.888;8.330;2022-12-16T06:36:10;-4.00;79.80
75769;DHT22;64379;48.888;8.330;2022-12-16T06:38:54;-4.00;79.50
75769;DHT22;64379;48.888;8.330;2022-12-16T06:41:38;-4.20;79.70
75769;DHT22;64379;48.888;8.330;2022-12-16T06:44:22;-4.30;80.10
75769;DHT22;64379;48.888;8.330;2022-12-16T06:47:06;-4.40;80.40
75769;DHT22;64379;48.888;8.330;2022-12-16T06:49:51;-4.40;80.20
75769;DHT22;64379;48.888;8.330;2022-12-16T06:52:35;-4.30;79.60
75769;DHT22;64379;48.888;8.330;2022-12-16T06:55:21;-4.40;79.40
75769;DHT22;64379;48.888;8.330;2022-12-16T06:58:05;-4.60;79.80
75769;DHT22;64379;48.888;8.330;2022-12-16T07:00:49;-4.60;80.20
75769;DHT22;64379;48.888;8.330;2022-12-16T07:03:34;-4.70;80.60
75769;DHT22;64379;48.888;8.330;2022-12-16T07:06:18;-4.90;80.70
75769;DHT22;64379;48.888;8.330;2022-12-16T07:09:02;-4.80;80.60
75769;DHT22;64379;48.888;8.330;2022-12-16T07:11:47;-4.90;80.90
75769;DHT22;64379;48.888;8.330;2022-12-16T07:14:31;-4.90;80.80
75769;DHT22;64379;48.888;8.330;2022-12-16T07:17:15;-5.00;80.90
75769;DHT22;64379;48.888;8.330;2022-12-16T07:19:59;-5.10;81.00
75769;DHT22;64379;48.888;8.330;2022-12-16T07:22:44;-5.20;81.10
75769;DHT22;64379;48.888;8.330;2022-12-16T07:25:28;-5.20;81.50
75769;DHT22;64379;48.888;8.330;2022-12-16T07:28:12;-5.20;81.90
75769;DHT22;64379;48.888;8.330;2022-12-16T07:30:57;-5.40;81.40
75769;DHT22;64379;48.888;8.330;2022-12-16T07:33:41;-5.70;81.90
75769;DHT22;64379;48.888;8.330;2022-12-16T07:36:25;-5.80;82.40
75769;DHT22;64379;48.888;8.330;2022-12-16T07:39:09;-5.70;82.70
75769;DHT22;64379;48.888;8.330;2022-12-16T07:41:53;-5.60;82.80
75769;DHT22;64379;48.888;8.330;2022-12-16T07:44:37;-5.40;82.40
75769;DHT22;64379;48.888;8.330;2022-12-16T07:47:22;-5.40;82.10
75769;DHT22;64379;48.888;8.330;2022-12-16T07:50:06;-5.40;82.20
75769;DHT22;64379;48.888;8.330;2022-12-16T07:52:56;-5.40;82.10
75769;DHT22;64379;48.888;8.330;2022-12-16T07:55:41;-5.40;81.50
75769;DHT22;64379;48.888;8.330;2022-12-16T07:58:26;-5.40;81.40
75769;DHT22;64379;48.888;8.330;2022-12-16T08:01:10;-5.40;81.40
75769;DHT22;64379;48.888;8.330;2022-12-16T08:03:54;-5.20;80.90
75769;DHT22;64379;48.888;8.330;2022-12-16T08:06:38;-5.20;80.30
75769;DHT22;64379;48.888;8.330;2022-12-16T08:09:22;-5.20;80.60
75769;DHT22;64379;48.888;8.330;2022-12-16T08:12:06;-5.20;80.50
75769;DHT22;64379;48.888;8.330;2022-12-16T08:14:50;-5.20;80.50
75769;DHT22;64379;48.888;8.330;2022-12-16T08:17:35;-5.30;80.70
75769;DHT22;64379;48.888;8.330;2022-12-16T08:20:19;-5.20;80.40
75769;DHT22;64379;48.888;8.330;2022-12-16T08:23:03;-5.20;80.10
75769;DHT22;64379;48.888;8.330;2022-12-16T08:25:47;-5.10;80.00
75769;DHT22;64379;48.888;8.330;2022-12-16T08:28:45;-5.00;79.90
75769;DHT22;64379;48.888;8.330;2022-12-16T08:31:31;-4.60;79.20
75769;DHT22;64379;48.888;8.330;2022-12-16T08:34:15;-4.00;77.20
75769;DHT22;64379;48.888;8.330;2022-12-16T08:36:59;-4.10;76.60
75769;DHT22;64379;48.888;8.330;2022-12-16T08:39:43;-3.10;74.20
75769;DHT22;64379;48.888;8.330;2022-12-16T08:42:28;-1.90;69.70
75769;DHT22;64379;48.888;8.330;2022-12-16T08:45:13;-1.90;68.90
75769;DHT22;64379;48.888;8.330;2022-12-16T08:47:57;-1.80;68.90
75769;DHT22;64379;48.888;8.330;2022-12-16T08:50:41;-1.10;66.40
75769;DHT22;64379;48.888;8.330;2022-12-16T08:53:25;-1.50;66.00
75769;DHT22;64379;48.888;8.330;2022-12-16T08:56:10;-1.60;66.80
75769;DHT22;64379;48.888;8.330;2022-12-16T08:58:54;-0.20;64.10
75769;DHT22;64379;48.888;8.330;2022-12-16T09:01:38;0.30;61.70
75769;DHT22;64379;48.888;8.330;2022-12-16T09:04:22;0.60;60.40
75769;DHT22;64379;48.888;8.330;2022-12-16T09:07:06;0.50;60.10
75769;DHT22;64379;48.888;8.330;2022-12-16T09:09:50;0.40;60.70
75769;DHT22;64379;48.888;8.330;2022-12-16T09:12:34;0.90;59.70
75769;DHT22;64379;48.888;8.330;2022-12-16T09:15:18;1.40;57.80
75769;DHT22;64379;48.888;8.330;2022-12-16T09:18:03;1.60;57.60
75769;DHT22;64379;48.888;8.330;2022-12-16T09:20:47;1.80;56.80
75769;DHT22;64379;48.888;8.330;2022-12-16T09:23:31;1.70;56.80
75769;DHT22;64379;48.888;8.330;2022-12-16T09:26:15;2.10;56.00
75769;DHT22;64379;48.888;8.330;2022-12-16T09:28:59;2.30;55.10
75769;DHT22;64379;48.888;8.330;2022-12-16T09:31:43;2.10;54.80
75769;DHT22;64379;48.888;8.330;2022-12-16T09:34:27;2.40;55.30
75769;DHT22;64379;48.888;8.330;2022-12-16T09:37:11;2.30;54.20
75769;DHT22;64379;48.888;8.330;2022-12-16T09:39:55;1.90;54.70
75769;DHT22;64379;48.888;8.330;2022-12-16T09:51:43;1.40;57.50
75769;DHT22;64379;48.888;8.330;2022-12-16T09:54:32;1.20;58.50
75769;DHT22;64379;48.888;8.330;2022-12-16T09:57:22;2.20;55.70
75769;DHT22;64379;48.888;8.330;2022-12-16T10:00:22;1.90;55.30
75769;DHT22;64379;48.888;8.330;2022-12-16T10:03:23;0.70;57.80
75769;DHT22;64379;48.888;8.330;2022-12-16T10:06:29;0.00;61.30
75769;DHT22;64379;48.888;8.330;2022-12-16T10:12:24;0.40;60.70
75769;DHT22;64379;48.888;8.330;2022-12-16T10:15:17;-0.50;63.00
75769;DHT22;64379;48.888;8.330;2022-12-16T10:18:28;-1.30;65.70
75769;DHT22;64379;48.888;8.330;2022-12-16T10:21:20;-1.10;65.40
75769;DHT22;64379;48.888;8.330;2022-12-16T10:27:14;-0.90;65.90
75769;DHT22;64379;48.888;8.330;2022-12-16T10:29:59;-0.40;64.50
75769;DHT22;64379;48.888;8.330;2022-12-16T10:32:48;-0.60;65.10
75769;DHT22;64379;48.888;8.330;2022-12-16T10:35:50;-0.90;65.60
75769;DHT22;64379;48.888;8.330;2022-12-16T10:38:54;-0.60;65.80
75769;DHT22;64379;48.888;8.330;2022-12-16T10:41:43;-0.70;65.80
75769;DHT22;64379;48.888;8.330;2022-12-16T10:44:34;-0.60;66.10
75769;DHT22;64379;48.888;8.330;2022-12-16T10:47:20;-0.70;66.20
75769;DHT22;64379;48.888;8.330;2022-12-16T10:50:04;-0.70;66.90
75769;DHT22;64379;48.888;8.330;2022-12-16T10:53:01;-0.70;66.10
75769;DHT22;64379;48.888;8.330;2022-12-16T10:59:07;-0.40;65.50
75769;DHT22;64379;48.888;8.330;2022-12-16T11:01:59;-0.70;65.70
75769;DHT22;64379;48.888;8.330;2022-12-16T11:04:45;-1.50;67.90
75769;DHT22;64379;48.888;8.330;2022-12-16T11:10:30;-1.00;67.00
75769;DHT22;64379;48.888;8.330;2022-12-16T11:16:24;-1.30;68.70
75769;DHT22;64379;48.888;8.330;2022-12-16T11:19:24;-1.20;68.00
75769;DHT22;64379;48.888;8.330;2022-12-16T11:22:20;-1.20;67.20
75769;DHT22;64379;48.888;8.330;2022-12-16T11:28:08;-1.60;68.40
75769;DHT22;64379;48.888;8.330;2022-12-16T11:30:56;-1.20;67.50
75769;DHT22;64379;48.888;8.330;2022-12-16T11:33:42;2.00;60.70
75769;DHT22;64379;48.888;8.330;2022-12-16T11:36:27;4.70;52.90
75769;DHT22;64379;48.888;8.330;2022-12-16T11:39:16;5.90;49.20
75769;DHT22;64379;48.888;8.330;2022-12-16T11:42:03;7.10;46.50
75769;DHT22;64379;48.888;8.330;2022-12-16T11:44:51;7.00;45.40
75769;DHT22;64379;48.888;8.330;2022-12-16T11:47:38;6.80;45.90
75769;DHT22;64379;48.888;8.330;2022-12-16T11:50:25;7.20;45.10
75769;DHT22;64379;48.888;8.330;2022-12-16T11:56:14;9.30;40.50
75769;DHT22;64379;48.888;8.330;2022-12-16T11:59:35;8.40;41.30
75769;DHT22;64379;48.888;8.330;2022-12-16T12:02:29;8.10;41.00
75769;DHT22;64379;48.888;8.330;2022-12-16T12:05:15;7.60;42.10
75769;DHT22;64379;48.888;8.330;2022-12-16T12:08:11;6.70;43.20
75769;DHT22;64379;48.888;8.330;2022-12-16T12:11:23;8.00;42.00
75769;DHT22;64379;48.888;8.330;2022-12-16T12:14:45;7.80;41.80
75769;DHT22;64379;48.888;8.330;2022-12-16T12:17:49;7.90;41.90
75769;DHT22;64379;48.888;8.330;2022-12-16T12:30:22;9.00;40.30
75769;DHT22;64379;48.888;8.330;2022-12-16T12:33:32;7.30;40.80
75769;DHT22;64379;48.888;8.330;2022-12-16T12:39:42;5.80;44.90
75769;DHT22;64379;48.888;8.330;2022-12-16T12:42:44;6.00;46.00
75769;DHT22;64379;48.888;8.330;2022-12-16T12:45:56;6.20;45.70
75769;DHT22;64379;48.888;8.330;2022-12-16T12:48:58;6.90;45.10
75769;DHT22;64379;48.888;8.330;2022-12-16T12:58:04;5.50;46.50
75769;DHT22;64379;48.888;8.330;2022-12-16T13:00:52;3.20;50.80
75769;DHT22;64379;48.888;8.330;2022-12-16T13:03:47;2.50;53.40
75769;DHT22;64379;48.888;8.330;2022-12-16T13:06:34;2.10;54.10
75769;DHT22;64379;48.888;8.330;2022-12-16T13:09:37;2.20;55.40
75769;DHT22;64379;48.888;8.330;2022-12-16T13:12:26;2.40;55.00
75769;DHT22;64379;48.888;8.330;2022-12-16T13:18:30;2.10;55.60
75769;DHT22;64379;48.888;8.330;2022-12-16T13:27:15;1.70;55.80
75769;DHT22;64379;48.888;8.330;2022-12-16T13:30:03;1.70;57.10
75769;DHT22;64379;48.888;8.330;2022-12-16T13:32:58;1.50;57.80
75769;DHT22;64379;48.888;8.330;2022-12-16T13:35:58;1.30;57.60
75769;DHT22;64379;48.888;8.330;2022-12-16T13:38:47;1.10;58.40
75769;DHT22;64379;48.888;8.330;2022-12-16T13:53:44;1.00;60.60
75769;DHT22;64379;48.888;8.330;2022-12-16T13:56:40;1.00;59.90
75769;DHT22;64379;48.888;8.330;2022-12-16T13:59:30;1.00;60.20
75769;DHT22;64379;48.888;8.330;2022-12-16T14:02:37;0.80;59.60
75769;DHT22;64379;48.888;8.330;2022-12-16T14:05:26;0.90;61.40
75769;DHT22;64379;48.888;8.330;2022-12-16T14:08:14;1.00;61.20
75769;DHT22;64379;48.888;8.330;2022-12-16T14:11:03;0.80;60.30
75769;DHT22;64379;48.888;8.330;2022-12-16T14:25:42;0.20;64.00
75769;DHT22;64379;48.888;8.330;2022-12-16T14:28:35;0.20;63.20
75769;DHT22;64379;48.888;8.330;2022-12-16T14:31:29;0.30;63.70
75769;DHT22;64379;48.888;8.330;2022-12-16T14:34:20;0.30;63.00
75769;DHT22;64379;48.888;8.330;2022-12-16T14:40:05;0.10;64.50
75769;DHT22;64379;48.888;8.330;2022-12-16T14:43:00;0.00;64.20
75769;DHT22;64379;48.888;8.330;2022-12-16T14:45:48;-0.10;64.00
75769;DHT22;64379;48.888;8.330;2022-12-16T14:48:33;-0.30;65.50
75769;DHT22;64379;48.888;8.330;2022-12-16T14:51:34;-0.30;65.80
75769;DHT22;64379;48.888;8.330;2022-12-16T14:57:20;-0.30;66.40
75769;DHT22;64379;48.888;8.330;2022-12-16T15:02:55;-0.30;65.80
75769;DHT22;64379;48.888;8.330;2022-12-16T15:05:41;-0.40;66.10
75769;DHT22;64379;48.888;8.330;2022-12-16T15:08:28;-0.40;67.50
75769;DHT22;64379;48.888;8.330;2022-12-16T15:11:16;-0.60;67.90
75769;DHT22;64379;48.888;8.330;2022-12-16T15:14:01;-0.60;68.20
75769;DHT22;64379;48.888;8.330;2022-12-16T15:16:47;-0.40;66.90
75769;DHT22;64379;48.888;8.330;2022-12-16T15:19:50;-0.60;67.70
75769;DHT22;64379;48.888;8.330;2022-12-16T15:22:35;-0.60;67.70
75769;DHT22;64379;48.888;8.330;2022-12-16T15:25:24;-0.50;67.80
75769;DHT22;64379;48.888;8.330;2022-12-16T15:28:24;-0.60;68.80
75769;DHT22;64379;48.888;8.330;2022-12-16T15:31:22;-0.80;68.20
75769;DHT22;64379;48.888;8.330;2022-12-16T15:34:51;-0.90;69.80
75769;DHT22;64379;48.888;8.330;2022-12-16T15:37:40;-1.00;69.90
75769;DHT22;64379;48.888;8.330;2022-12-16T15:40:30;-1.00;70.30
75769;DHT22;64379;48.888;8.330;2022-12-16T15:43:27;-1.00;70.20
75769;DHT22;64379;48.888;8.330;2022-12-16T15:46:26;-1.00;70.50
75769;DHT22;64379;48.888;8.330;2022-12-16T15:49:33;-1.10;70.40
75769;DHT22;64379;48.888;8.330;2022-12-16T16:01:01;-1.20;69.30
75769;DHT22;64379;48.888;8.330;2022-12-16T16:03:51;-1.10;69.60
75769;DHT22;64379;48.888;8.330;2022-12-16T16:06:35;-1.30;70.00
75769;DHT22;64379;48.888;8.330;2022-12-16T16:12:10;-1.30;71.60
75769;DHT22;64379;48.888;8.330;2022-12-16T16:14:54;-1.20;70.70
75769;DHT22;64379;48.888;8.330;2022-12-16T16:17:38;-1.30;71.70
75769;DHT22;64379;48.888;8.330;2022-12-16T16:20:23;-1.30;71.20
75769;DHT22;64379;48.888;8.330;2022-12-16T16:23:08;-1.30;71.90
75769;DHT22;64379;48.888;8.330;2022-12-16T16:25:53;-1.40;72.20
75769;DHT22;64379;48.888;8.330;2022-12-16T16:28:37;-1.30;72.80
75769;DHT22;64379;48.888;8.330;2022-12-16T16:31:22;-1.30;73.10
75769;DHT22;64379;48.888;8.330;2022-12-16T16:34:06;-1.30;73.20
75769;DHT22;64379;48.888;8.330;2022-12-16T16:36:55;-1.30;73.20
75769;DHT22;64379;48.888;8.330;2022-12-16T16:39:40;-1.40;73.70
75769;DHT22;64379;48.888;8.330;2022-12-16T16:42:25;-1.30;73.70
75769;DHT22;64379;48.888;8.330;2022-12-16T16:45:10;-1.10;72.30
75769;DHT22;64379;48.888;8.330;2022-12-16T16:48:12;-1.10;71.30
75769;DHT22;64379;48.888;8.330;2022-12-16T16:50:57;-1.10;70.50
75769;DHT22;64379;48.888;8.330;2022-12-16T16:53:42;-1.10;69.50
75769;DHT22;64379;48.888;8.330;2022-12-16T16:56:28;-1.10;70.10
75769;DHT22;64379;48.888;8.330;2022-12-16T16:59:14;-1.10;71.60
75769;DHT22;64379;48.888;8.330;2022-12-16T17:01:58;-0.90;71.30
75769;DHT22;64379;48.888;8.330;2022-12-16T17:04:43;-1.10;71.50
75769;DHT22;64379;48.888;8.330;2022-12-16T17:07:27;-1.20;72.60
75769;DHT22;64379;48.888;8.330;2022-12-16T17:10:11;-1.30;73.40
75769;DHT22;64379;48.888;8.330;2022-12-16T17:12:55;-1.20;73.30
75769;DHT22;64379;48.888;8.330;2022-12-16T17:15:53;-1.10;74.50
75769;DHT22;64379;48.888;8.330;2022-12-16T17:18:37;-1.10;74.60
75769;DHT22;64379;48.888;8.330;2022-12-16T17:21:21;-1.00;74.70
75769;DHT22;64379;48.888;8.330;2022-12-16T17:24:05;-1.10;74.90
75769;DHT22;64379;48.888;8.330;2022-12-16T17:26:49;-1.30;75.40
75769;DHT22;64379;48.888;8.330;2022-12-16T17:29:33;-1.30;75.40
75769;DHT22;64379;48.888;8.330;2022-12-16T17:32:17;-1.10;74.90
75769;DHT22;64379;48.888;8.330;2022-12-16T17:35:02;-1.10;74.70
75769;DHT22;64379;48.888;8.330;2022-12-16T17:37:46;-1.30;75.20
75769;DHT22;64379;48.888;8.330;2022-12-16T17:40:30;-1.30;75.70
75769;DHT22;64379;48.888;8.330;2022-12-16T17:43:14;-1.30;76.20
75769;DHT22;64379;48.888;8.330;2022-12-16T17:46:06;-1.50;76.30
75769;DHT22;64379;48.888;8.330;2022-12-16T17:48:54;-1.50;77.40
75769;DHT22;64379;48.888;8.330;2022-12-16T17:51:39;-1.50;77.70
75769;DHT22;64379;48.888;8.330;2022-12-16T17:54:23;-1.50;77.70
75769;DHT22;64379;48.888;8.330;2022-12-16T17:57:08;-1.50;77.60
75769;DHT22;64379;48.888;8.330;2022-12-16T17:59:52;-1.50;77.40
75769;DHT22;64379;48.888;8.330;2022-12-16T18:02:36;-1.50;77.60
75769;DHT22;64379;48.888;8.330;2022-12-16T18:05:20;-1.30;77.20
75769;DHT22;64379;48.888;8.330;2022-12-16T18:08:04;-1.20;76.90
75769;DHT22;64379;48.888;8.330;2022-12-16T18:10:52;-1.30;76.00
75769;DHT22;64379;48.888;8.330;2022-12-16T18:13:36;-1.30;76.80
75769;DHT22;64379;48.888;8.330;2022-12-16T18:16:21;-1.30;77.10
75769;DHT22;64379;48.888;8.330;2022-12-16T18:19:04;-1.30;76.50
75769;DHT22;64379;48.888;8.330;2022-12-16T18:21:49;-1.30;77.20
75769;DHT22;64379;48.888;8.330;2022-12-16T18:24:33;-1.30;77.00
75769;DHT22;64379;48.888;8.330;2022-12-16T18:27:17;-1.30;77.30
75769;DHT22;64379;48.888;8.330;2022-12-16T18:30:01;-1.50;77.70
75769;DHT22;64379;48.888;8.330;2022-12-16T18:32:45;-1.60;78.30
75769;DHT22;64379;48.888;8.330;2022-12-16T18:35:29;-1.50;78.30
75769;DHT22;64379;48.888;8.330;2022-12-16T18:38:13;-1.50;78.20
75769;DHT22;64379;48.888;8.330;2022-12-16T18:41:11;-1.40;77.90
75769;DHT22;64379;48.888;8.330;2022-12-16T18:44:00;-1.50;76.90
75769;DHT22;64379;48.888;8.330;2022-12-16T18:46:45;-1.50;77.40
75769;DHT22;64379;48.888;8.330;2022-12-16T18:49:30;-1.50;78.10
75769;DHT22;64379;48.888;8.330;2022-12-16T18:52:14;-1.60;78.00
75769;DHT22;64379;48.888;8.330;2022-12-16T18:54:58;-1.50;78.30
75769;DHT22;64379;48.888;8.330;2022-12-16T18:57:42;-1.50;78.00
75769;DHT22;64379;48.888;8.330;2022-12-16T19:00:27;-1.50;77.90
75769;DHT22;64379;48.888;8.330;2022-12-16T19:03:11;-1.70;78.60
75769;DHT22;64379;48.888;8.330;2022-12-16T19:05:55;-1.80;79.10
75769;DHT22;64379;48.888;8.330;2022-12-16T19:08:39;-1.80;79.30
75769;DHT22;64379;48.888;8.330;2022-12-16T19:11:23;-1.90;79.00
75769;DHT22;64379;48.888;8.330;2022-12-16T19:14:07;-2.10;79.90
75769;DHT22;64379;48.888;8.330;2022-12-16T19:16:52;-2.10;79.50
75769;DHT22;64379;48.888;8.330;2022-12-16T19:19:36;-2.10;79.80
75769;DHT22;64379;48.888;8.330;2022-12-16T19:22:27;-2.10;80.30
75769;DHT22;64379;48.888;8.330;2022-12-16T19:25:12;-2.10;80.00
75769;DHT22;64379;48.888;8.330;2022-12-16T19:27:56;-2.20;79.90
75769;DHT22;64379;48.888;8.330;2022-12-16T19:30:40;-2.20;79.80